In Rescue
 
Open Full Screen Window  High Contrast Mode
Wind Gusting 00 knots
05
May 25, 2022 9:31 PM EDT
Present Weather: Mist
Weather Information
Wind Direction
  060 °
Wind Speed
  05 kt (6 mph)
Wind Gust
  00 kt (0 mph)
Altimeter
29.92 in
Visibility
5 SM
Temperature
17° C
63° F
Dewpoint
17° C
63° F
Humidity
100%
1hr Rain Fall
00.00 in.
24hr Rain Fall
00.02 in.
Sky Condition
Broken @ 4,800 ft
Scattered @ 1,600 ft
Scattered @ 400 ft
MVFR

METAR KMOP 260131Z AUTO 06005KT 5SM BR SCT004 SCT016 BKN048 17/17 A2992 RMK AO2 T01650165

FAA Disclaimer: The data displayed is for advisory purposes only and is not to be used for flight planning or operations.